createdAt,value
2023-03-11T00:00:17.021Z,2.90
2023-03-11T00:02:47.596Z,3.22
2023-03-11T00:05:28.678Z,2.47
2023-03-11T00:07:55.929Z,2.30
2023-03-11T00:10:37.311Z,2.88
2023-03-11T00:13:05.920Z,2.85
2023-03-11T00:15:33.595Z,2.50
2023-03-11T00:18:00.495Z,2.38
2023-03-11T00:20:33.597Z,2.90
2023-03-11T00:23:00.929Z,2.97
2023-03-11T00:25:30.257Z,2.88
2023-03-11T00:27:57.458Z,3.00
2023-03-11T00:30:24.969Z,2.65
2023-03-11T00:32:54.208Z,2.67
2023-03-11T00:35:26.086Z,2.70
2023-03-11T00:37:58.501Z,1.80
2023-03-11T00:40:27.591Z,2.70
2023-03-11T00:42:54.215Z,3.00
2023-03-11T00:45:20.772Z,2.45
2023-03-11T00:47:47.409Z,2.65
2023-03-11T00:50:21.964Z,2.65
2023-03-11T00:52:49.896Z,2.40
2023-03-11T00:55:28.297Z,2.45
2023-03-11T00:58:00.680Z,2.40
2023-03-11T01:00:28.355Z,2.65
2023-03-11T01:02:55.891Z,2.05
2023-03-11T01:05:25.708Z,2.08
2023-03-11T01:07:52.140Z,2.20
2023-03-11T01:10:21.542Z,1.85
2023-03-11T01:12:48.494Z,2.13
2023-03-11T01:15:20.164Z,2.33
2023-03-11T01:17:46.669Z,1.80
2023-03-11T01:20:13.931Z,2.15
2023-03-11T01:22:40.333Z,2.17
2023-03-11T01:25:07.231Z,2.05
2023-03-11T01:27:33.644Z,2.05
2023-03-11T01:30:02.114Z,2.17
2023-03-11T01:32:28.601Z,2.05
2023-03-11T01:34:54.947Z,2.25
2023-03-11T01:37:21.341Z,1.90
2023-03-11T01:39:47.688Z,1.85
2023-03-11T01:42:14.097Z,1.88
2023-03-11T01:44:40.430Z,2.10
2023-03-11T01:47:09.739Z,1.73
2023-03-11T01:49:41.774Z,1.77
2023-03-11T01:52:08.923Z,1.30
2023-03-11T01:54:41.410Z,2.00
2023-03-11T01:57:12.331Z,1.90
2023-03-11T01:59:44.611Z,1.80
2023-03-11T02:02:20.086Z,1.88
2023-03-11T02:04:47.149Z,1.58
2023-03-11T02:07:14.541Z,1.63
2023-03-11T02:09:41.071Z,1.33
2023-03-11T02:12:11.092Z,1.90
2023-03-11T02:14:41.993Z,1.73
2023-03-11T02:17:08.802Z,2.10
2023-03-11T02:19:35.161Z,2.00
2023-03-11T02:22:02.349Z,1.95
2023-03-11T02:24:45.252Z,1.75
2023-03-11T02:27:16.398Z,2.15
2023-03-11T02:29:44.569Z,2.00
2023-03-11T02:32:11.362Z,2.20
2023-03-11T02:34:39.554Z,2.53
2023-03-11T02:37:08.374Z,1.70
2023-03-11T02:39:37.334Z,1.90
2023-03-11T02:42:18.676Z,1.98
2023-03-11T02:44:48.226Z,1.60
2023-03-11T02:47:16.526Z,1.40
2023-03-11T02:49:43.043Z,1.30
2023-03-11T02:52:09.389Z,1.75
2023-03-11T02:54:35.737Z,1.65
2023-03-11T02:57:02.080Z,1.60
2023-03-11T02:59:28.456Z,1.70
2023-03-11T03:01:54.904Z,1.48
2023-03-11T03:04:21.298Z,1.30
2023-03-11T03:06:47.766Z,1.73
2023-03-11T03:09:14.109Z,1.25
2023-03-11T03:11:40.441Z,1.40
2023-03-11T03:14:06.751Z,1.63
2023-03-11T03:16:33.324Z,1.70
2023-03-11T03:18:59.757Z,1.30
2023-03-11T03:21:26.140Z,1.40
2023-03-11T03:23:52.496Z,1.80
2023-03-11T03:26:18.832Z,1.10
2023-03-11T03:28:45.183Z,1.70
2023-03-11T03:31:11.997Z,1.30
2023-03-11T03:33:38.468Z,1.30
2023-03-11T03:36:10.394Z,1.38
2023-03-11T03:38:36.891Z,2.10
2023-03-11T03:41:03.425Z,1.45
2023-03-11T03:43:29.890Z,1.75
2023-03-11T03:45:58.525Z,1.52
2023-03-11T03:48:25.023Z,1.38
2023-03-11T03:50:51.835Z,1.40
2023-03-11T03:53:18.674Z,1.67
2023-03-11T03:55:45.129Z,1.35
2023-03-11T03:58:11.572Z,1.52
2023-03-11T04:00:39.270Z,1.35
2023-03-11T04:03:06.424Z,1.73
2023-03-11T04:05:33.935Z,1.63
2023-03-11T04:08:00.559Z,2.10
2023-03-11T04:10:26.956Z,1.17
2023-03-11T04:12:53.353Z,1.38
2023-03-11T04:15:19.705Z,2.03
2023-03-11T04:17:46.047Z,1.55
2023-03-11T04:20:12.536Z,1.30
2023-03-11T04:22:38.886Z,1.80
2023-03-11T04:25:05.633Z,1.50
2023-03-11T04:27:31.963Z,1.75
2023-03-11T04:29:58.341Z,1.27
2023-03-11T04:32:24.783Z,1.48
2023-03-11T04:34:51.229Z,1.50
2023-03-11T04:37:17.601Z,1.92
2023-03-11T04:39:43.996Z,1.50
2023-03-11T04:42:10.429Z,1.23
2023-03-11T04:44:36.829Z,1.05
2023-03-11T04:47:03.173Z,1.00
2023-03-11T04:49:29.582Z,1.60
2023-03-11T04:51:56.627Z,2.25
2023-03-11T04:54:22.956Z,1.27
2023-03-11T04:56:49.284Z,1.25
2023-03-11T04:59:15.672Z,1.42
2023-03-11T05:01:42.047Z,1.52
2023-03-11T05:04:08.583Z,1.30
2023-03-11T05:06:35.013Z,0.90
2023-03-11T05:09:01.383Z,1.20
2023-03-11T05:11:27.705Z,1.15
2023-03-11T05:13:54.081Z,1.38
2023-03-11T05:16:20.550Z,1.23
2023-03-11T05:18:46.983Z,1.30
2023-03-11T05:21:13.437Z,1.23
2023-03-11T05:23:39.863Z,0.85
2023-03-11T05:26:06.268Z,1.30
2023-03-11T05:28:32.651Z,1.83
2023-03-11T05:30:59.122Z,1.27
2023-03-11T05:33:25.616Z,1.13
2023-03-11T05:35:52.224Z,1.20
2023-03-11T05:38:18.679Z,1.20
2023-03-11T05:40:45.135Z,1.15
2023-03-11T05:43:11.618Z,1.35
2023-03-11T05:45:38.211Z,1.38
2023-03-11T05:48:04.682Z,1.50
2023-03-11T05:50:31.180Z,1.30
2023-03-11T05:52:57.572Z,1.52
2023-03-11T05:55:23.940Z,1.63
2023-03-11T05:57:51.753Z,1.40
2023-03-11T06:00:20.472Z,1.70
2023-03-11T06:02:46.872Z,1.52
2023-03-11T06:05:14.065Z,1.70
2023-03-11T06:07:40.585Z,1.65
2023-03-11T06:10:07.652Z,1.95
2023-03-11T06:12:35.170Z,1.73
2023-03-11T06:15:01.752Z,1.58
2023-03-11T06:17:30.326Z,1.20
2023-03-11T06:19:56.912Z,1.55
2023-03-11T06:22:23.218Z,1.52
2023-03-11T06:24:49.679Z,2.35
2023-03-11T06:27:16.071Z,1.52
2023-03-11T06:29:42.457Z,1.38
2023-03-11T06:32:08.835Z,1.52
2023-03-11T06:34:35.333Z,1.52
2023-03-11T06:37:01.797Z,1.85
2023-03-11T06:39:28.139Z,1.38
2023-03-11T06:41:54.591Z,1.48
2023-03-11T06:44:20.935Z,1.70
2023-03-11T06:46:47.278Z,1.70
2023-03-11T06:49:13.663Z,1.50
2023-03-11T06:51:40.082Z,1.70
2023-03-11T06:54:07.099Z,1.55
2023-03-11T06:56:33.898Z,1.40
2023-03-11T06:59:00.261Z,1.50
2023-03-11T07:01:28.038Z,1.30
2023-03-11T07:09:04.614Z,1.40
2023-03-11T07:11:30.991Z,1.60
2023-03-11T07:13:57.432Z,1.13
2023-03-11T07:16:26.629Z,1.23
2023-03-11T07:18:55.456Z,1.55
2023-03-11T07:21:22.935Z,1.30
2023-03-11T07:23:54.937Z,1.58
2023-03-11T07:26:23.012Z,1.33
2023-03-11T07:28:49.524Z,1.38
2023-03-11T07:31:18.800Z,1.70
2023-03-11T07:33:46.308Z,1.50
2023-03-11T07:36:18.525Z,1.45
2023-03-11T07:38:46.277Z,1.45
2023-03-11T07:41:14.204Z,1.63
2023-03-11T07:43:42.317Z,1.33
2023-03-11T07:46:12.687Z,1.30
2023-03-11T07:48:40.113Z,1.27
2023-03-11T07:51:12.527Z,1.52
2023-03-11T07:53:42.202Z,1.90
2023-03-11T07:56:10.891Z,2.10
2023-03-11T07:58:37.958Z,1.77
2023-03-11T08:01:06.965Z,2.03
2023-03-11T08:03:34.712Z,1.90
2023-03-11T08:06:01.511Z,2.08
2023-03-11T08:08:28.178Z,1.80
2023-03-11T08:10:54.572Z,1.75
2023-03-11T08:13:21.094Z,2.08
2023-03-11T08:15:47.621Z,1.60
2023-03-11T08:18:14.072Z,1.50
2023-03-11T08:20:40.595Z,1.55
2023-03-11T08:23:06.989Z,1.63
2023-03-11T08:25:33.499Z,1.75
2023-03-11T08:27:59.913Z,1.70
2023-03-11T08:30:26.414Z,1.95
2023-03-11T08:32:52.802Z,1.80
2023-03-11T08:35:22.293Z,1.75
2023-03-11T08:37:48.932Z,2.75
2023-03-11T08:40:17.612Z,2.00
2023-03-11T08:42:44.061Z,1.40
2023-03-11T08:45:12.860Z,1.70
2023-03-11T08:47:39.845Z,1.60
2023-03-11T08:50:09.377Z,1.77
2023-03-11T08:52:35.950Z,1.65
2023-03-11T08:55:04.758Z,1.92
2023-03-11T08:57:32.118Z,1.85
2023-03-11T09:00:01.241Z,1.98
2023-03-11T09:02:27.700Z,1.83
2023-03-11T09:04:57.364Z,1.33
2023-03-11T09:07:24.958Z,1.60
2023-03-11T09:09:51.373Z,1.80
2023-03-11T09:12:19.313Z,1.88
2023-03-11T09:14:45.854Z,1.85
2023-03-11T09:17:14.483Z,1.80
2023-03-11T09:19:40.910Z,1.70
2023-03-11T09:22:13.199Z,1.90
2023-03-11T09:24:39.618Z,1.65
2023-03-11T09:27:09.200Z,2.10
2023-03-11T09:29:35.770Z,2.20
2023-03-11T09:32:03.393Z,2.45
2023-03-11T09:34:29.750Z,2.72
2023-03-11T09:37:02.080Z,2.00
2023-03-11T09:39:28.460Z,1.63
2023-03-11T09:42:19.855Z,2.08
2023-03-11T09:44:55.507Z,1.77
2023-03-11T09:47:30.865Z,1.80
2023-03-11T09:50:23.700Z,1.60
2023-03-11T09:53:02.203Z,1.45
2023-03-11T09:55:33.766Z,2.00
2023-03-11T09:58:09.742Z,1.98
2023-03-11T10:00:36.711Z,1.73
2023-03-11T10:03:12.912Z,1.98
2023-03-11T10:05:42.196Z,1.77
2023-03-11T10:08:24.412Z,2.00
2023-03-11T10:11:05.821Z,1.98
2023-03-11T10:14:00.245Z,1.70
2023-03-11T10:16:41.063Z,2.00
2023-03-11T10:19:45.819Z,2.00
2023-03-11T10:22:32.181Z,1.50
2023-03-11T10:25:07.604Z,1.50
2023-03-11T10:28:13.192Z,1.90
2023-03-11T10:30:51.382Z,1.45
2023-03-11T10:33:37.168Z,1.92
2023-03-11T10:36:13.507Z,1.55
2023-03-11T10:38:46.570Z,1.90
2023-03-11T10:41:31.043Z,1.70
2023-03-11T10:44:05.921Z,1.48
2023-03-11T10:46:32.865Z,1.67
2023-03-11T10:48:59.306Z,1.70
2023-03-11T10:51:34.708Z,1.42
2023-03-11T10:54:03.405Z,1.73
2023-03-11T10:56:31.781Z,1.60
2023-03-11T10:58:59.482Z,1.40
2023-03-11T11:01:26.976Z,1.38
2023-03-11T11:03:56.599Z,1.48
2023-03-11T11:06:37.318Z,1.77
2023-03-11T11:09:16.716Z,1.30
2023-03-11T11:12:00.525Z,1.25
2023-03-11T11:14:45.739Z,1.58
2023-03-11T11:17:31.395Z,1.60
2023-03-11T11:19:59.077Z,1.95
2023-03-11T11:22:25.839Z,1.55
2023-03-11T11:24:55.575Z,2.20
2023-03-11T11:27:27.602Z,1.92
2023-03-11T11:30:14.903Z,2.28
2023-03-11T11:32:42.179Z,1.45
2023-03-11T11:35:14.981Z,1.85
2023-03-11T11:37:49.000Z,1.67
2023-03-11T11:40:21.695Z,1.80
2023-03-11T11:43:19.722Z,1.63
2023-03-11T11:45:53.391Z,1.27
2023-03-11T11:48:26.539Z,1.50
2023-03-11T11:50:59.064Z,1.20
2023-03-11T11:53:41.095Z,1.27
2023-03-11T11:56:07.551Z,1.73
2023-03-11T11:58:34.959Z,1.48
2023-03-11T12:01:08.457Z,1.17
2023-03-11T12:04:18.551Z,1.25
2023-03-11T12:07:17.301Z,1.20
2023-03-11T12:09:56.680Z,1.10
2023-03-11T12:12:55.299Z,1.30
2023-03-11T12:15:32.049Z,1.17
2023-03-11T12:18:08.546Z,1.13
2023-03-11T12:20:40.486Z,1.40
2023-03-11T12:23:17.055Z,1.30
2023-03-11T12:25:46.148Z,0.93
2023-03-11T12:28:31.874Z,1.10
2023-03-11T12:31:01.605Z,1.20
2023-03-11T12:34:03.050Z,1.17
2023-03-11T12:36:36.424Z,1.02
2023-03-11T12:39:19.429Z,1.10
2023-03-11T12:44:29.921Z,1.00
2023-03-11T12:46:59.297Z,1.33
2023-03-11T12:49:30.520Z,1.08
2023-03-11T12:52:02.822Z,1.10
2023-03-11T12:54:36.250Z,1.20
2023-03-11T12:57:05.271Z,1.02
2023-03-11T12:59:49.955Z,1.00
2023-03-11T13:02:38.206Z,1.10
2023-03-11T13:08:13.706Z,1.05
2023-03-11T13:10:50.975Z,0.80
2023-03-11T13:13:32.940Z,1.10
2023-03-11T13:16:14.600Z,1.08
2023-03-11T13:18:46.578Z,1.35
2023-03-11T13:21:34.479Z,1.57
2023-03-11T13:24:19.305Z,1.30
2023-03-11T13:26:48.725Z,1.10
2023-03-11T13:29:46.969Z,1.48
2023-03-11T13:32:25.314Z,1.35
2023-03-11T13:35:13.724Z,0.90
2023-03-11T13:38:13.620Z,1.02
2023-03-11T13:40:42.730Z,0.70
2023-03-11T13:43:22.726Z,0.90
2023-03-11T13:46:22.277Z,1.02
2023-03-11T13:48:55.256Z,0.90
2023-03-11T13:54:22.246Z,1.02
2023-03-11T13:56:54.023Z,1.20
2023-03-11T13:59:32.885Z,1.10
2023-03-11T14:02:03.928Z,1.02
2023-03-11T14:04:33.618Z,1.00
2023-03-11T14:07:00.596Z,0.93
2023-03-11T14:09:28.419Z,1.10
2023-03-11T14:12:03.391Z,1.00
2023-03-11T14:15:02.151Z,1.20
2023-03-11T14:17:28.669Z,1.02
2023-03-11T14:20:18.573Z,1.02
2023-03-11T14:22:51.170Z,0.80
2023-03-11T14:25:31.022Z,0.85
2023-03-11T14:28:01.196Z,0.80
2023-03-11T14:30:36.431Z,1.20
2023-03-11T14:33:21.665Z,1.00
2023-03-11T14:35:59.854Z,0.90
2023-03-11T14:38:29.301Z,0.80
2023-03-11T14:41:05.628Z,0.80
2023-03-11T14:43:37.481Z,1.02
2023-03-11T14:46:06.619Z,0.80
2023-03-11T14:48:43.788Z,1.02
2023-03-11T14:51:30.128Z,0.80
2023-03-11T14:54:17.610Z,0.80
2023-03-11T14:56:51.143Z,1.20
2023-03-11T14:59:26.985Z,0.90
2023-03-11T15:01:57.659Z,0.90
2023-03-11T15:04:38.069Z,1.00
2023-03-11T15:07:05.454Z,0.68
2023-03-11T15:09:32.781Z,0.90
2023-03-11T15:12:02.063Z,0.77
2023-03-11T15:14:31.820Z,1.10
2023-03-11T15:17:37.377Z,0.80
2023-03-11T15:20:28.026Z,0.80
2023-03-11T15:22:58.306Z,0.80
2023-03-11T15:25:24.919Z,1.05
2023-03-11T15:27:51.484Z,1.02
2023-03-11T15:30:24.056Z,0.90
2023-03-11T15:32:51.873Z,1.00
2023-03-11T15:35:21.680Z,1.75
2023-03-11T15:37:50.127Z,0.98
2023-03-11T15:40:23.420Z,1.25
2023-03-11T15:43:27.660Z,1.30
2023-03-11T15:45:56.331Z,1.10
2023-03-11T15:48:23.440Z,0.82
2023-03-11T15:50:55.273Z,1.30
2023-03-11T15:53:23.450Z,0.88
2023-03-11T15:55:51.416Z,1.10
2023-03-11T15:58:19.399Z,1.02
2023-03-11T16:00:51.966Z,0.93
2023-03-11T16:03:19.655Z,0.90
2023-03-11T16:05:46.814Z,1.00
2023-03-11T16:08:13.630Z,0.63
2023-03-11T16:10:41.133Z,0.90
2023-03-11T16:13:12.045Z,0.98
2023-03-11T16:15:38.714Z,1.10
2023-03-11T16:18:08.649Z,0.90
2023-03-11T16:20:41.292Z,0.80
2023-03-11T16:23:11.953Z,0.90
2023-03-11T16:25:40.503Z,0.98
2023-03-11T16:28:07.706Z,0.90
2023-03-11T16:30:35.325Z,1.10
2023-03-11T16:33:04.467Z,1.00
2023-03-11T16:35:32.000Z,0.90
2023-03-11T16:37:58.559Z,1.08
2023-03-11T16:40:28.165Z,0.90
2023-03-11T16:42:58.341Z,0.98
2023-03-11T16:45:24.965Z,0.80
2023-03-11T16:47:51.395Z,0.90
2023-03-11T16:50:17.942Z,0.90
2023-03-11T16:52:44.378Z,1.00
2023-03-11T16:55:10.824Z,0.80
2023-03-11T16:57:38.748Z,0.90
2023-03-11T17:00:07.061Z,1.02
2023-03-11T17:02:33.532Z,1.50
2023-03-11T17:05:00.103Z,1.25
2023-03-11T17:07:26.898Z,1.27
2023-03-11T17:09:53.340Z,1.30
2023-03-11T17:12:19.878Z,1.60
2023-03-11T17:14:46.697Z,1.40
2023-03-11T17:17:13.187Z,1.08
2023-03-11T17:19:39.727Z,1.80
2023-03-11T17:22:06.272Z,1.50
2023-03-11T17:24:32.857Z,1.38
2023-03-11T17:26:59.341Z,1.55
2023-03-11T17:29:25.829Z,1.40
2023-03-11T17:31:52.436Z,1.75
2023-03-11T17:34:18.951Z,1.20
2023-03-11T17:36:45.420Z,1.58
2023-03-11T17:39:11.896Z,1.23
2023-03-11T17:41:38.393Z,1.55
2023-03-11T17:44:05.408Z,1.30
2023-03-11T17:46:31.991Z,1.35
2023-03-11T17:48:58.495Z,1.00
2023-03-11T17:51:26.126Z,1.20
2023-03-11T17:53:55.048Z,1.42
2023-03-11T17:56:22.555Z,1.63
2023-03-11T17:58:50.291Z,1.45
2023-03-11T18:01:23.908Z,1.52
2023-03-11T18:03:50.641Z,1.30
2023-03-11T18:06:18.936Z,1.30
2023-03-11T18:08:45.765Z,1.65
2023-03-11T18:11:18.282Z,1.50
2023-03-11T18:13:45.255Z,1.50
2023-03-11T18:16:15.401Z,1.67
2023-03-11T18:18:43.025Z,1.42
2023-03-11T18:21:12.999Z,1.20
2023-03-11T18:23:40.240Z,1.52
2023-03-11T18:26:09.706Z,1.48
2023-03-11T18:28:36.115Z,1.55
2023-03-11T18:31:23.828Z,1.60
2023-03-11T18:33:56.742Z,1.30
2023-03-11T18:36:27.028Z,1.38
2023-03-11T18:38:54.817Z,1.08
2023-03-11T18:41:21.537Z,1.38
2023-03-11T18:43:52.657Z,1.50
2023-03-11T18:46:19.652Z,1.48
2023-03-11T18:48:46.441Z,1.83
2023-03-11T18:51:14.152Z,1.85
2023-03-11T18:53:42.737Z,1.80
2023-03-11T18:56:13.926Z,1.35
2023-03-11T18:58:40.554Z,1.48
2023-03-11T19:01:09.628Z,1.45
2023-03-11T19:03:36.368Z,1.42
2023-03-11T19:08:33.707Z,1.50
2023-03-11T19:11:00.209Z,1.50
2023-03-11T19:13:40.628Z,2.00
2023-03-11T19:16:09.407Z,1.42
2023-03-11T19:18:36.918Z,1.40
2023-03-11T19:21:05.882Z,1.40
2023-03-11T19:23:33.134Z,1.40
2023-03-11T19:26:03.242Z,1.42
2023-03-11T19:28:30.276Z,1.30
2023-03-11T19:30:58.909Z,1.48
2023-03-11T19:33:26.086Z,1.90
2023-03-11T19:35:54.667Z,1.88
2023-03-11T19:38:21.880Z,1.65
2023-03-11T19:40:53.449Z,1.55
2023-03-11T19:43:21.047Z,1.90
2023-03-11T19:45:49.753Z,1.90
2023-03-11T19:48:16.727Z,2.00
2023-03-11T19:50:43.439Z,1.73
2023-03-11T19:53:10.090Z,2.10
2023-03-11T19:55:36.717Z,1.98
2023-03-11T19:58:03.261Z,2.22
2023-03-11T20:00:30.570Z,1.98
2023-03-11T20:02:57.447Z,1.98
2023-03-11T20:05:23.976Z,2.38
2023-03-11T20:07:50.608Z,2.40
2023-03-11T20:10:17.656Z,2.35
2023-03-11T20:12:59.643Z,2.60
2023-03-11T20:15:28.745Z,2.75
2023-03-11T20:17:55.217Z,2.63
2023-03-11T20:20:21.881Z,2.50
2023-03-11T20:22:48.759Z,2.17
2023-03-11T20:25:18.371Z,2.33
2023-03-11T20:27:45.223Z,2.30
2023-03-11T20:30:12.617Z,2.28
2023-03-11T20:32:39.135Z,2.60
2023-03-11T20:35:06.429Z,2.05
2023-03-11T20:37:33.337Z,2.35
2023-03-11T20:39:59.868Z,2.33
2023-03-11T20:42:26.382Z,2.70
2023-03-11T20:44:53.738Z,2.80
2023-03-11T20:47:20.824Z,2.90
2023-03-11T20:49:47.518Z,2.50
2023-03-11T20:52:14.054Z,2.70
2023-03-11T20:54:40.754Z,2.85
2023-03-11T20:57:08.092Z,2.22
2023-03-11T20:59:34.591Z,2.90
2023-03-11T21:02:01.441Z,2.70
2023-03-11T21:04:28.004Z,2.67
2023-03-11T21:06:55.450Z,2.92
2023-03-11T21:09:22.123Z,3.58
2023-03-11T21:11:48.709Z,2.88
2023-03-11T21:14:17.242Z,3.10
2023-03-11T21:16:45.429Z,2.65
2023-03-11T21:19:13.618Z,4.60
2023-03-11T21:21:40.892Z,6.47
2023-03-11T21:24:08.166Z,7.03
2023-03-11T21:26:34.829Z,4.07
2023-03-11T21:29:01.877Z,3.33
2023-03-11T21:31:29.647Z,3.47
2023-03-11T21:33:58.788Z,3.08
2023-03-11T21:36:25.898Z,3.08
2023-03-11T21:38:52.560Z,3.38
2023-03-11T21:41:21.998Z,3.92
2023-03-11T21:43:48.812Z,3.90
2023-03-11T21:46:18.035Z,3.65
2023-03-11T21:48:46.107Z,3.90
2023-03-11T21:51:13.865Z,3.30
2023-03-11T21:53:40.630Z,3.85
2023-03-11T21:56:07.605Z,4.05
2023-03-11T21:58:34.915Z,3.40
2023-03-11T22:01:01.843Z,3.38
2023-03-11T22:03:28.829Z,3.60
2023-03-11T22:06:00.432Z,3.33
2023-03-11T22:08:27.114Z,3.97
2023-03-11T22:10:54.188Z,3.42
2023-03-11T22:13:21.219Z,3.53
2023-03-11T22:15:48.038Z,2.85
2023-03-11T22:18:14.695Z,3.08
2023-03-11T22:20:41.989Z,2.88
2023-03-11T22:23:09.148Z,2.88
2023-03-11T22:25:36.003Z,2.55
2023-03-11T22:28:02.707Z,2.92
2023-03-11T22:30:29.484Z,2.83
2023-03-11T22:32:56.025Z,2.88
2023-03-11T22:35:22.502Z,2.58
2023-03-11T22:37:49.059Z,2.72
2023-03-11T22:40:15.655Z,2.70
2023-03-11T22:42:42.194Z,2.75
2023-03-11T22:45:08.861Z,2.90
2023-03-11T22:47:35.367Z,2.72
2023-03-11T22:50:01.805Z,2.75
2023-03-11T22:52:28.298Z,2.50
2023-03-11T22:54:54.846Z,2.78
2023-03-11T22:57:21.408Z,3.13
2023-03-11T22:59:47.864Z,2.80
2023-03-11T23:02:14.434Z,3.15
2023-03-11T23:04:45.470Z,2.88
2023-03-11T23:07:12.531Z,2.38
2023-03-11T23:09:39.157Z,2.80
2023-03-11T23:12:06.911Z,2.65
2023-03-11T23:14:44.669Z,2.22
2023-03-11T23:17:12.371Z,2.58
2023-03-11T23:19:39.032Z,2.22
2023-03-11T23:22:07.007Z,2.25
2023-03-11T23:24:34.054Z,2.00
2023-03-11T23:27:00.635Z,2.38
2023-03-11T23:29:27.192Z,2.70
2023-03-11T23:31:53.771Z,2.40
2023-03-11T23:34:20.239Z,2.88
2023-03-11T23:36:46.819Z,2.53
2023-03-11T23:39:13.329Z,2.45
2023-03-11T23:41:39.756Z,2.63
2023-03-11T23:44:06.330Z,2.38
2023-03-11T23:46:32.983Z,2.20
2023-03-11T23:49:01.233Z,2.58
2023-03-11T23:51:28.063Z,2.78
2023-03-11T23:53:54.632Z,2.83
2023-03-11T23:56:21.156Z,2.50
2023-03-11T23:58:47.729Z,2.60
